Time;durP1;ratioP1;P1;durP2;ratioP2;P2;SDS_P1;SDS_P2;PMS_P1;PMS_P2;Temp;Humidity;BMP_temperature;BMP_pressure;BME280_temperature;BME280_humidity;BME280_pressure;Samples;Min_cycle;Max_cycle;Signal;HPM_P1;HPM_P2
2022/11/28 00:02:26;;;;;;;2.25;0.85;;;21.90;50.00;;;;;;5074399;28;20194;-63
2022/11/28 00:04:56;;;;;;;1.25;0.80;;;21.90;50.00;;;;;;5073563;28;20218;-52
2022/11/28 00:07:27;;;;;;;2.50;0.60;;;22.00;49.90;;;;;;5072218;28;20211;-50
2022/11/28 00:09:58;;;;;;;2.83;0.70;;;22.00;49.90;;;;;;5054569;28;20207;-58
2022/11/28 00:12:29;;;;;;;1.50;0.70;;;22.00;49.90;;;;;;5063907;28;20195;-66
2022/11/28 00:15:01;;;;;;;1.27;0.57;;;22.00;49.80;;;;;;5073224;28;20233;-61
2022/11/28 00:17:32;;;;;;;1.63;0.70;;;22.10;49.80;;;;;;5073767;28;20205;-63
2022/11/28 00:20:03;;;;;;;0.98;0.60;;;22.10;49.80;;;;;;5072769;28;20195;-62
2022/11/28 00:22:34;;;;;;;2.78;0.70;;;22.10;49.80;;;;;;5073457;28;20537;-57
2022/11/28 00:25:05;;;;;;;1.70;0.80;;;22.10;49.80;;;;;;5072994;28;20211;-63
2022/11/28 00:27:37;;;;;;;2.20;0.90;;;22.20;49.70;;;;;;5071736;28;20215;-64
2022/11/28 00:30:11;;;;;;;1.98;0.60;;;22.20;49.60;;;;;;5072710;28;20653;-60
2022/11/28 00:32:42;;;;;;;2.30;0.95;;;22.20;49.50;;;;;;5065850;28;20569;-66
2022/11/28 00:35:12;;;;;;;1.63;0.70;;;22.20;49.50;;;;;;5072793;28;20219;-53
2022/11/28 00:37:43;;;;;;;2.40;0.82;;;22.20;49.40;;;;;;5072413;28;20198;-50
2022/11/28 00:40:14;;;;;;;2.30;0.80;;;22.20;49.40;;;;;;5073349;28;20195;-60
2022/11/28 00:42:45;;;;;;;2.75;1.10;;;22.30;49.40;;;;;;5072336;28;20665;-58
2022/11/28 00:45:21;;;;;;;3.92;0.82;;;22.30;49.40;;;;;;5072814;28;20217;-53
2022/11/28 00:47:51;;;;;;;2.60;1.00;;;22.30;49.40;;;;;;5074280;28;20230;-49
2022/11/28 00:50:22;;;;;;;1.60;0.50;;;22.30;49.40;;;;;;5072720;28;20558;-48
2022/11/28 00:52:53;;;;;;;1.50;0.75;;;22.30;49.40;;;;;;5071919;28;20630;-48
2022/11/28 00:55:23;;;;;;;3.00;0.93;;;22.30;49.40;;;;;;5054779;28;20196;-55
2022/11/28 00:57:54;;;;;;;1.83;0.82;;;22.40;49.40;;;;;;5065438;28;20195;-56
2022/11/28 01:00:27;;;;;;;2.50;0.80;;;22.40;49.40;;;;;;5060310;28;20206;-56
2022/11/28 01:02:58;;;;;;;3.67;1.00;;;22.40;49.20;;;;;;5057539;28;20193;-59
2022/11/28 01:05:29;;;;;;;1.38;0.82;;;22.40;49.20;;;;;;5071725;28;20234;-56
2022/11/28 01:07:59;;;;;;;1.30;0.63;;;22.40;49.10;;;;;;5066857;28;20211;-58
2022/11/28 01:10:30;;;;;;;1.88;0.85;;;22.40;49.20;;;;;;5060765;28;20647;-61
2022/11/28 01:13:01;;;;;;;1.75;0.70;;;22.40;49.10;;;;;;5071941;28;20190;-59
2022/11/28 01:15:33;;;;;;;1.48;0.60;;;22.40;49.10;;;;;;5071540;28;20642;-55
2022/11/28 01:18:04;;;;;;;1.60;0.70;;;22.40;49.10;;;;;;5071954;28;20206;-66
2022/11/28 01:20:35;;;;;;;2.33;0.80;;;22.40;49.10;;;;;;5058651;28;20198;-63
2022/11/28 01:23:06;;;;;;;1.75;0.85;;;22.40;49.10;;;;;;5066513;28;20213;-55
2022/11/28 01:25:36;;;;;;;1.45;1.00;;;22.40;49.10;;;;;;5072028;28;20191;-60
2022/11/28 01:28:07;;;;;;;2.42;0.93;;;22.50;49.10;;;;;;5071816;28;20226;-66
2022/11/28 01:30:40;;;;;;;2.83;0.70;;;22.50;49.00;;;;;;5071561;28;20664;-63
2022/11/28 01:33:11;;;;;;;2.33;0.75;;;22.50;49.00;;;;;;5060533;28;20570;-66
2022/11/28 01:35:41;;;;;;;3.05;0.60;;;22.50;48.90;;;;;;5051051;28;20584;-66
2022/11/28 01:38:12;;;;;;;1.42;0.70;;;22.50;48.90;;;;;;5050756;28;20207;-65
2022/11/28 01:40:48;;;;;;;2.10;0.80;;;22.50;48.90;;;;;;5070506;28;20682;-67
2022/11/28 01:43:23;;;;;;;3.47;0.90;;;22.60;48.90;;;;;;5070792;28;20220;-65
2022/11/28 01:45:56;;;;;;;2.13;0.80;;;22.60;48.90;;;;;;5058804;28;20256;-64
2022/11/28 01:48:29;;;;;;;1.27;0.70;;;22.60;49.40;;;;;;5066194;28;20222;-65
2022/11/28 01:51:03;;;;;;;1.92;0.85;;;22.60;48.90;;;;;;5071303;28;20209;-65
2022/11/28 01:53:37;;;;;;;1.40;0.85;;;22.50;48.80;;;;;;5070460;28;20218;-57
2022/11/28 01:56:10;;;;;;;2.03;0.90;;;22.60;48.90;;;;;;5070960;28;20684;-65
2022/11/28 01:58:44;;;;;;;1.80;0.80;;;22.60;48.90;;;;;;5069289;28;20229;-62
2022/11/28 02:01:20;;;;;;;2.70;0.80;;;22.60;48.90;;;;;;5070710;28;20570;-56
2022/11/28 02:03:52;;;;;;;2.15;0.80;;;22.60;48.90;;;;;;5070979;28;20225;-57
2022/11/28 02:06:25;;;;;;;2.03;0.80;;;22.60;48.90;;;;;;5071061;28;20191;-58
2022/11/28 02:08:56;;;;;;;1.27;0.70;;;22.70;48.90;;;;;;5068923;28;20226;-58
2022/11/28 02:12:02;;;;;;;4.60;1.05;;;22.70;48.90;;;;;;5070439;28;20203;-63
2022/11/28 02:14:55;;;;;;;2.15;0.80;;;22.70;48.80;;;;;;5065380;28;20223;-49
2022/11/28 02:17:41;;;;;;;4.30;0.90;;;22.70;48.80;;;;;;5068494;28;20218;-52
2022/11/28 02:21:01;;;;;;;2.13;0.80;;;22.70;48.80;;;;;;5069448;28;20201;-60
2022/11/28 02:23:49;;;;;;;1.15;0.60;;;22.70;48.80;;;;;;5070881;28;20299;-49
2022/11/28 02:26:53;;;;;;;2.30;0.77;;;22.70;48.80;;;;;;5067534;28;20225;-65
2022/11/28 02:29:51;;;;;;;3.88;0.93;;;22.70;48.90;;;;;;5040246;28;20566;-50
2022/11/28 02:32:35;;;;;;;1.95;0.80;;;22.80;48.90;;;;;;5071264;28;20195;-53
2022/11/28 02:35:11;;;;;;;1.80;0.80;;;22.80;48.90;;;;;;5065947;28;20571;-58
2022/11/28 02:37:51;;;;;;;1.95;0.70;;;22.80;49.00;;;;;;5070249;28;20210;-63
2022/11/28 02:40:26;;;;;;;1.83;0.77;;;22.80;48.90;;;;;;5070714;28;20203;-57
2022/11/28 02:43:09;;;;;;;2.80;1.00;;;22.90;49.10;;;;;;5062271;28;20575;-62
2022/11/28 02:45:47;;;;;;;2.30;0.98;;;22.90;48.90;;;;;;5050622;28;20550;-58
2022/11/28 02:48:27;;;;;;;2.08;0.85;;;22.90;48.90;;;;;;5050942;28;20227;-60
2022/11/28 02:51:04;;;;;;;1.63;0.85;;;22.90;48.80;;;;;;5050534;28;20207;-58
2022/11/28 02:53:36;;;;;;;3.38;1.20;;;22.90;48.80;;;;;;5058223;28;20215;-57
2022/11/28 02:56:07;;;;;;;3.63;1.35;;;23.00;48.80;;;;;;5070168;28;20599;-62
2022/11/28 02:58:39;;;;;;;2.78;0.90;;;23.00;48.80;;;;;;5070675;28;20207;-59
2022/11/28 03:01:13;;;;;;;1.65;0.82;;;23.00;48.70;;;;;;5070239;28;20209;-53
2022/11/28 03:04:15;;;;;;;2.58;1.00;;;23.00;48.70;;;;;;5069568;28;20234;-54
2022/11/28 03:06:57;;;;;;;3.38;0.90;;;23.00;48.70;;;;;;5066913;28;20220;-56
2022/11/28 03:09:51;;;;;;;1.35;0.90;;;23.10;48.70;;;;;;5052791;28;20210;-62
2022/11/28 03:12:33;;;;;;;1.88;0.85;;;23.10;48.70;;;;;;5050722;28;21465;-54
2022/11/28 03:15:05;;;;;;;3.00;0.82;;;23.10;48.70;;;;;;5066148;28;20214;-54
2022/11/28 03:17:46;;;;;;;2.38;0.82;;;23.20;48.70;;;;;;5050977;28;20211;-53
2022/11/28 03:20:24;;;;;;;1.77;1.17;;;23.20;48.60;;;;;;5065439;28;20658;-54
2022/11/28 03:23:08;;;;;;;3.47;1.00;;;23.30;48.60;;;;;;5070371;28;20221;-61
2022/11/28 03:25:46;;;;;;;5.93;1.00;;;23.30;48.50;;;;;;5070431;28;20199;-57
2022/11/28 03:28:24;;;;;;;3.38;0.80;;;23.30;48.50;;;;;;5070250;28;20234;-63
2022/11/28 03:30:59;;;;;;;3.22;1.05;;;23.30;48.40;;;;;;5069850;28;20202;-62
2022/11/28 03:33:33;;;;;;;2.50;0.90;;;23.30;48.30;;;;;;5063012;28;20382;-57
2022/11/28 03:36:09;;;;;;;1.90;0.80;;;23.30;48.30;;;;;;5069403;28;20226;-59
2022/11/28 03:38:43;;;;;;;4.63;1.08;;;23.40;48.40;;;;;;5061686;28;20199;-64
2022/11/28 03:41:23;;;;;;;1.95;0.90;;;23.40;48.20;;;;;;5050026;28;20203;-60
2022/11/28 03:43:58;;;;;;;1.75;0.80;;;23.40;48.20;;;;;;5050474;28;20219;-59
2022/11/28 03:46:35;;;;;;;3.83;0.90;;;23.40;48.20;;;;;;5049926;28;20191;-57
2022/11/28 03:49:08;;;;;;;2.97;1.13;;;23.40;48.20;;;;;;5049979;28;20230;-53
2022/11/28 03:51:44;;;;;;;1.67;0.80;;;23.50;48.20;;;;;;5049786;28;20239;-48
2022/11/28 03:54:23;;;;;;;2.35;0.95;;;23.50;48.20;;;;;;5052005;28;20261;-58
2022/11/28 03:57:02;;;;;;;2.67;0.80;;;23.50;48.10;;;;;;5070164;28;20201;-57
2022/11/28 03:59:35;;;;;;;2.50;0.90;;;23.50;48.10;;;;;;5068801;28;20207;-60
2022/11/28 04:02:13;;;;;;;2.13;1.08;;;23.50;48.10;;;;;;5070315;28;20199;-54
2022/11/28 04:04:53;;;;;;;2.88;0.90;;;23.50;48.00;;;;;;5069844;28;20305;-59
2022/11/28 04:07:33;;;;;;;2.38;1.00;;;23.60;48.10;;;;;;5071576;28;20202;-60
2022/11/28 04:10:10;;;;;;;2.72;0.90;;;23.60;48.10;;;;;;5053857;28;20206;-60
2022/11/28 04:12:54;;;;;;;3.08;1.00;;;23.60;48.10;;;;;;5054000;28;20670;-58
2022/11/28 04:15:40;;;;;;;2.45;1.02;;;23.60;47.90;;;;;;5053374;28;20191;-58
2022/11/28 04:18:21;;;;;;;3.70;1.00;;;23.70;48.00;;;;;;5053239;28;20206;-57
2022/11/28 04:20:57;;;;;;;2.63;1.00;;;23.70;48.00;;;;;;5053607;28;20206;-62
2022/11/28 04:23:31;;;;;;;2.75;1.00;;;23.70;47.90;;;;;;5052987;28;20215;-55
2022/11/28 04:26:06;;;;;;;3.80;1.10;;;23.70;47.90;;;;;;5053760;28;20200;-61
2022/11/28 04:28:39;;;;;;;3.30;1.20;;;23.70;47.90;;;;;;5058564;28;20230;-51
2022/11/28 04:31:11;;;;;;;2.15;1.10;;;23.70;48.00;;;;;;5072211;28;20608;-50
2022/11/28 04:33:46;;;;;;;1.95;1.13;;;23.70;48.00;;;;;;5072838;28;20218;-58
2022/11/28 04:36:20;;;;;;;1.85;0.95;;;23.80;48.10;;;;;;5073226;28;20688;-49
2022/11/28 04:38:55;;;;;;;1.98;1.10;;;23.80;48.10;;;;;;5073429;28;20199;-54
2022/11/28 04:41:31;;;;;;;3.20;1.00;;;23.80;48.00;;;;;;5072534;28;20204;-53
2022/11/28 04:44:09;;;;;;;2.63;0.80;;;23.80;47.90;;;;;;5072817;28;20223;-52
2022/11/28 04:46:46;;;;;;;2.25;1.13;;;23.80;47.90;;;;;;5072126;28;20230;-51
2022/11/28 04:49:20;;;;;;;2.28;1.10;;;23.80;47.90;;;;;;5072261;28;20232;-52
2022/11/28 04:51:55;;;;;;;2.55;0.98;;;23.90;47.90;;;;;;5072860;28;20658;-48
2022/11/28 04:54:34;;;;;;;1.65;0.90;;;23.80;47.90;;;;;;5071274;28;20218;-49
2022/11/28 04:57:13;;;;;;;3.88;1.15;;;23.90;47.90;;;;;;5072511;28;20199;-48
2022/11/28 04:59:48;;;;;;;2.60;1.05;;;23.90;47.90;;;;;;5071137;28;20210;-56
2022/11/28 05:02:23;;;;;;;2.13;1.00;;;23.90;47.90;;;;;;5072883;28;20279;-59
2022/11/28 05:04:54;;;;;;;3.17;1.10;;;23.90;47.90;;;;;;5072255;28;20210;-48
2022/11/28 05:07:25;;;;;;;2.45;0.98;;;24.00;48.00;;;;;;5071157;28;20202;-55
2022/11/28 05:09:58;;;;;;;3.50;1.17;;;24.00;48.00;;;;;;5052424;28;20230;-51
2022/11/28 05:12:29;;;;;;;2.83;1.00;;;24.00;48.00;;;;;;5066005;28;20724;-49
2022/11/28 05:15:00;;;;;;;1.98;1.00;;;24.00;48.60;;;;;;5072051;28;20233;-48
2022/11/28 05:17:30;;;;;;;2.63;1.08;;;24.00;48.00;;;;;;5071798;28;20218;-58
2022/11/28 05:20:01;;;;;;;4.28;1.20;;;24.00;48.00;;;;;;5071472;28;20203;-51
2022/11/28 05:22:32;;;;;;;2.53;1.13;;;24.10;48.00;;;;;;5071871;28;20195;-54
2022/11/28 05:25:04;;;;;;;2.40;1.00;;;24.10;48.00;;;;;;5071995;28;20238;-60
2022/11/28 05:27:35;;;;;;;1.92;0.80;;;24.00;47.90;;;;;;5072113;28;20191;-56
2022/11/28 05:30:07;;;;;;;2.80;1.13;;;24.10;48.60;;;;;;5070431;28;20237;-59
2022/11/28 05:32:42;;;;;;;2.25;1.00;;;24.10;48.00;;;;;;5071273;28;20201;-57
2022/11/28 05:35:13;;;;;;;2.47;1.05;;;24.10;48.00;;;;;;5071303;28;20219;-59
2022/11/28 05:37:43;;;;;;;1.85;1.05;;;24.10;47.90;;;;;;5072290;28;20206;-60
2022/11/28 05:40:17;;;;;;;1.70;0.90;;;24.10;48.00;;;;;;5072092;28;20350;-59
2022/11/28 05:42:48;;;;;;;2.95;1.08;;;24.20;48.10;;;;;;5073503;28;20194;-59
2022/11/28 05:45:18;;;;;;;3.13;1.13;;;24.20;48.00;;;;;;5072812;28;20190;-61
2022/11/28 05:47:49;;;;;;;2.38;1.00;;;24.10;47.90;;;;;;5073098;28;20202;-60
2022/11/28 05:50:20;;;;;;;2.67;1.00;;;24.20;48.00;;;;;;5072367;28;20205;-57
2022/11/28 05:52:51;;;;;;;1.83;1.05;;;24.20;48.00;;;;;;5071574;28;20554;-61
2022/11/28 05:55:23;;;;;;;1.80;0.82;;;24.20;47.90;;;;;;5071305;28;20669;-60
2022/11/28 05:57:54;;;;;;;2.10;1.10;;;24.30;47.90;;;;;;5070803;28;20194;-54
2022/11/28 06:00:25;;;;;;;3.97;1.42;;;24.20;47.90;;;;;;5071631;28;20229;-59
2022/11/28 06:02:56;;;;;;;2.53;1.20;;;24.30;47.90;;;;;;5071457;28;20209;-54
2022/11/28 06:05:27;;;;;;;2.35;1.10;;;24.30;47.90;;;;;;5071298;28;20205;-61
2022/11/28 06:07:58;;;;;;;2.70;1.20;;;24.30;47.90;;;;;;5065675;28;20665;-62
2022/11/28 06:10:30;;;;;;;2.97;1.08;;;24.30;47.90;;;;;;5050838;28;20666;-61
2022/11/28 06:13:01;;;;;;;3.08;1.40;;;24.30;47.90;;;;;;5050853;28;20199;-58
2022/11/28 06:15:33;;;;;;;1.67;1.00;;;24.30;47.90;;;;;;5051144;28;20284;-61
2022/11/28 06:18:04;;;;;;;3.00;1.55;;;24.40;48.00;;;;;;5050421;28;20203;-60
2022/11/28 06:20:37;;;;;;;3.13;1.38;;;24.40;48.00;;;;;;5051068;28;20200;-55
2022/11/28 06:23:08;;;;;;;3.13;1.17;;;24.40;48.00;;;;;;5050841;28;20532;-55
2022/11/28 06:25:41;;;;;;;2.28;1.20;;;24.40;48.00;;;;;;5056729;28;20191;-60
2022/11/28 06:28:11;;;;;;;4.55;1.30;;;24.50;48.00;;;;;;5046617;22;20285;-59
2022/11/28 06:30:44;;;;;;;2.53;1.02;;;24.50;48.00;;;;;;5030645;28;20207;-59
2022/11/28 06:33:14;;;;;;;2.92;1.60;;;24.50;48.00;;;;;;5034416;28;20212;-59
2022/11/28 06:35:45;;;;;;;3.50;1.55;;;24.50;47.90;;;;;;5051255;28;20660;-58
2022/11/28 06:38:16;;;;;;;2.20;1.10;;;24.60;48.00;;;;;;5051440;28;20425;-57
2022/11/28 06:40:48;;;;;;;4.15;1.20;;;24.60;48.00;;;;;;5051160;28;20200;-57
2022/11/28 06:43:19;;;;;;;3.25;1.17;;;24.60;48.00;;;;;;5051242;28;20235;-58
2022/11/28 06:45:50;;;;;;;2.63;1.20;;;24.60;47.90;;;;;;5051265;28;20203;-57
2022/11/28 06:48:21;;;;;;;3.22;1.20;;;24.70;47.90;;;;;;5051311;28;20203;-58
2022/11/28 06:50:52;;;;;;;2.28;1.23;;;24.70;47.90;;;;;;5051135;28;20192;-59
2022/11/28 06:53:23;;;;;;;2.80;1.20;;;24.70;47.90;;;;;;5050856;28;20215;-57
2022/11/28 06:55:55;;;;;;;5.07;1.33;;;24.70;47.80;;;;;;5057890;28;20194;-56
2022/11/28 06:58:26;;;;;;;2.88;1.30;;;24.70;47.80;;;;;;5071454;28;20198;-59
2022/11/28 07:00:57;;;;;;;2.10;1.05;;;24.70;47.80;;;;;;5053716;28;20199;-59
2022/11/28 07:03:27;;;;;;;2.58;1.23;;;24.70;47.80;;;;;;5052410;28;20679;-59
2022/11/28 07:06:01;;;;;;;3.05;1.50;;;24.70;47.80;;;;;;5070919;28;20194;-58
2022/11/28 07:08:33;;;;;;;2.53;1.20;;;24.70;47.80;;;;;;5070252;28;20536;-58
2022/11/28 07:11:13;;;;;;;2.80;1.40;;;24.70;47.70;;;;;;5070439;28;20198;-54
2022/11/28 07:13:44;;;;;;;2.30;1.25;;;24.70;47.70;;;;;;5070455;28;20226;-56
2022/11/28 07:16:17;;;;;;;3.22;1.27;;;24.70;47.70;;;;;;5050255;28;20198;-57
2022/11/28 07:18:48;;;;;;;2.65;1.13;;;24.70;47.70;;;;;;5050857;28;20195;-60
2022/11/28 07:21:19;;;;;;;2.50;1.10;;;24.70;47.70;;;;;;5050720;28;20191;-59
2022/11/28 07:23:50;;;;;;;2.17;1.20;;;24.70;47.70;;;;;;5050644;28;20215;-61
2022/11/28 07:26:24;;;;;;;4.03;1.60;;;24.70;47.60;;;;;;5050943;28;20196;-58
2022/11/28 07:28:55;;;;;;;2.53;0.90;;;24.70;47.60;;;;;;5050907;28;20229;-60
2022/11/28 07:31:30;;;;;;;2.60;1.08;;;24.70;47.70;;;;;;5051245;28;20230;-55
2022/11/28 07:34:04;;;;;;;1.67;1.00;;;24.70;47.70;;;;;;5050599;28;20247;-59
2022/11/28 07:36:34;;;;;;;1.83;0.95;;;24.70;47.70;;;;;;5050228;28;20238;-57
2022/11/28 07:39:07;;;;;;;4.00;1.45;;;24.70;47.70;;;;;;5050511;28;20191;-59
2022/11/28 07:41:40;;;;;;;3.63;1.20;;;24.60;47.70;;;;;;5051548;28;20224;-57
2022/11/28 07:44:11;;;;;;;6.68;1.80;;;24.60;47.70;;;;;;5053900;28;20211;-61
2022/11/28 07:46:42;;;;;;;4.57;1.20;;;24.60;47.70;;;;;;5054300;28;20285;-52
2022/11/28 07:49:13;;;;;;;5.68;1.70;;;24.60;48.00;;;;;;5054621;28;20714;-62
2022/11/28 07:51:44;;;;;;;3.42;1.50;;;24.50;48.00;;;;;;5054220;28;20191;-60
2022/11/28 07:54:15;;;;;;;4.38;1.48;;;24.50;48.10;;;;;;5054475;28;20778;-59
2022/11/28 07:56:50;;;;;;;3.17;1.42;;;24.50;48.20;;;;;;5054147;28;20196;-60
2022/11/28 07:59:21;;;;;;;3.03;1.40;;;24.40;48.20;;;;;;5054054;28;20229;-59
2022/11/28 08:01:52;;;;;;;6.57;1.67;;;24.40;48.20;;;;;;5053968;28;20199;-57
2022/11/28 08:04:23;;;;;;;4.47;1.50;;;24.40;48.20;;;;;;5039713;28;20214;-59
2022/11/28 08:06:55;;;;;;;4.07;1.60;;;24.30;48.20;;;;;;5053362;28;20245;-58
2022/11/28 08:09:26;;;;;;;3.95;1.30;;;24.30;48.20;;;;;;5053764;28;20312;-61
2022/11/28 08:11:59;;;;;;;4.68;1.30;;;24.30;48.20;;;;;;5052851;28;20215;-59
2022/11/28 08:14:29;;;;;;;3.92;1.30;;;24.30;48.20;;;;;;5052775;28;20585;-60
2022/11/28 08:17:00;;;;;;;5.07;1.60;;;24.30;48.30;;;;;;5052934;28;20196;-56
2022/11/28 08:19:31;;;;;;;4.28;1.42;;;24.20;48.30;;;;;;5052648;28;20651;-56
2022/11/28 08:22:02;;;;;;;3.70;1.50;;;24.20;48.40;;;;;;5067013;28;20190;-52
2022/11/28 08:24:33;;;;;;;3.25;1.42;;;24.20;48.40;;;;;;5072605;28;20219;-60
2022/11/28 08:27:05;;;;;;;2.80;1.13;;;24.20;48.40;;;;;;5073748;28;20225;-59
2022/11/28 08:29:36;;;;;;;2.85;1.20;;;24.20;48.40;;;;;;5066601;28;20219;-61
2022/11/28 08:32:07;;;;;;;2.40;1.10;;;24.10;48.30;;;;;;5052581;28;20214;-61
2022/11/28 08:34:38;;;;;;;4.95;1.30;;;24.10;48.30;;;;;;5052472;28;20860;-60
2022/11/28 08:37:09;;;;;;;2.83;1.60;;;24.10;48.30;;;;;;5053281;28;20199;-53
2022/11/28 08:39:39;;;;;;;4.40;1.30;;;24.00;48.30;;;;;;5052344;28;20195;-60
2022/11/28 08:42:12;;;;;;;3.15;1.27;;;24.00;48.30;;;;;;5052560;28;20206;-61
2022/11/28 08:44:43;;;;;;;3.63;1.50;;;24.00;48.30;;;;;;5052117;28;20409;-54
2022/11/28 08:47:13;;;;;;;3.85;1.38;;;24.00;48.20;;;;;;5061418;28;20829;-58
2022/11/28 08:49:44;;;;;;;2.85;1.40;;;23.90;48.20;;;;;;5073044;28;20304;-53
2022/11/28 08:52:15;;;;;;;2.50;1.40;;;23.90;48.20;;;;;;5072123;28;20727;-50
2022/11/28 08:54:46;;;;;;;3.90;1.30;;;23.80;48.20;;;;;;5071191;28;20713;-60
2022/11/28 08:57:18;;;;;;;3.22;1.27;;;23.80;48.20;;;;;;5068013;28;20202;-60
2022/11/28 08:59:50;;;;;;;2.92;1.20;;;23.80;48.20;;;;;;5053020;28;20578;-51
2022/11/28 09:02:20;;;;;;;3.67;1.27;;;23.80;48.20;;;;;;5053069;28;20199;-49
2022/11/28 09:04:51;;;;;;;3.05;1.10;;;23.80;48.20;;;;;;5052053;28;20227;-49
2022/11/28 09:07:22;;;;;;;3.08;1.40;;;23.70;48.20;;;;;;5051399;28;20195;-52
2022/11/28 09:09:52;;;;;;;2.42;1.30;;;23.70;48.20;;;;;;5051826;28;20242;-60
2022/11/28 09:12:25;;;;;;;2.05;1.27;;;23.70;48.10;;;;;;5051308;28;20206;-56
2022/11/28 09:14:56;;;;;;;2.83;1.25;;;23.70;48.20;;;;;;5051494;28;20234;-58
2022/11/28 09:17:26;;;;;;;1.88;0.90;;;23.60;48.10;;;;;;5052636;28;20558;-55
2022/11/28 09:19:57;;;;;;;3.03;1.20;;;23.60;48.00;;;;;;5051664;28;20195;-55
2022/11/28 09:22:29;;;;;;;2.17;1.20;;;23.60;48.10;;;;;;5052249;28;20198;-60
2022/11/28 09:25:00;;;;;;;1.98;1.30;;;23.50;48.00;;;;;;5052395;28;20718;-60
2022/11/28 09:27:33;;;;;;;3.58;1.17;;;23.50;48.00;;;;;;5053334;28;20222;-60
2022/11/28 09:30:03;;;;;;;2.17;1.20;;;23.50;48.00;;;;;;5052034;28;20250;-57
2022/11/28 09:32:34;;;;;;;3.47;1.13;;;23.40;48.00;;;;;;5052323;28;20200;-53
2022/11/28 09:35:05;;;;;;;2.63;1.10;;;23.40;48.00;;;;;;5051568;28;20245;-57
2022/11/28 09:37:36;;;;;;;2.88;1.20;;;23.40;48.10;;;;;;5052384;28;20234;-57
2022/11/28 09:40:07;;;;;;;1.05;0.85;;;23.40;48.00;;;;;;5052037;28;20245;-57
2022/11/28 09:42:43;;;;;;;1.83;1.00;;;23.40;48.10;;;;;;5051701;28;20202;-61
2022/11/28 09:45:17;;;;;;;2.05;1.20;;;23.30;48.00;;;;;;5051858;28;20211;-57
2022/11/28 09:47:51;;;;;;;3.58;1.25;;;23.30;48.00;;;;;;5051919;28;20198;-58
2022/11/28 09:50:26;;;;;;;2.40;0.88;;;23.30;48.00;;;;;;5051526;28;20222;-59
2022/11/28 09:53:02;;;;;;;3.38;1.30;;;23.20;47.90;;;;;;5051968;28;20210;-58
2022/11/28 09:55:40;;;;;;;2.58;0.80;;;23.20;47.90;;;;;;5051817;28;20225;-59
2022/11/28 09:58:20;;;;;;;2.17;1.02;;;23.10;47.90;;;;;;5051930;28;20560;-58
2022/11/28 10:00:57;;;;;;;2.65;1.05;;;23.10;47.90;;;;;;5051938;28;20202;-56
2022/11/28 10:03:38;;;;;;;1.90;0.90;;;23.10;47.90;;;;;;5051704;28;20211;-55
2022/11/28 10:06:17;;;;;;;3.45;1.13;;;23.10;48.00;;;;;;5051254;28;20195;-59
2022/11/28 10:09:05;;;;;;;2.13;1.00;;;23.00;47.90;;;;;;5051787;28;20643;-59
2022/11/28 10:11:46;;;;;;;1.65;1.00;;;23.00;48.00;;;;;;5051555;28;20227;-58
2022/11/28 10:14:50;;;;;;;1.30;0.80;;;23.00;48.00;;;;;;5051676;28;20221;-59
2022/11/28 10:17:33;;;;;;;2.85;1.27;;;22.90;47.90;;;;;;5051889;28;20199;-53
2022/11/28 10:20:07;;;;;;;4.60;1.15;;;22.90;47.90;;;;;;5051752;28;20199;-53
2022/11/28 10:22:43;;;;;;;2.15;1.15;;;22.90;47.90;;;;;;5051886;28;20225;-58
2022/11/28 10:25:20;;;;;;;1.70;0.80;;;22.90;47.90;;;;;;5051486;28;20215;-59
2022/11/28 10:27:51;;;;;;;1.13;0.80;;;22.80;47.80;;;;;;5051791;28;20199;-59
2022/11/28 10:30:26;;;;;;;3.15;1.20;;;22.80;47.80;;;;;;5051302;28;20231;-57
2022/11/28 10:33:08;;;;;;;2.67;1.10;;;22.80;47.80;;;;;;5051136;28;20206;-57
2022/11/28 10:35:47;;;;;;;1.73;0.90;;;22.70;47.80;;;;;;5051367;28;20235;-57
2022/11/28 10:38:24;;;;;;;1.25;0.80;;;22.70;47.80;;;;;;5051341;28;20219;-58
2022/11/28 10:41:01;;;;;;;1.05;0.82;;;22.70;47.90;;;;;;5051407;28;20472;-57
2022/11/28 10:43:39;;;;;;;1.98;1.10;;;22.60;47.90;;;;;;5051017;28;20230;-52
2022/11/28 10:46:38;;;;;;;1.88;1.10;;;22.60;47.90;;;;;;5051389;28;20446;-59
2022/11/28 10:49:25;;;;;;;1.23;0.80;;;22.50;47.80;;;;;;5040248;28;20196;-58
2022/11/28 10:52:04;;;;;;;2.10;0.90;;;22.50;47.80;;;;;;5051253;28;20198;-60
2022/11/28 10:54:52;;;;;;;1.70;0.90;;;22.50;47.80;;;;;;5053602;28;20215;-58
2022/11/28 10:57:27;;;;;;;1.35;0.98;;;22.50;47.80;;;;;;5051149;28;20203;-57
2022/11/28 11:00:11;;;;;;;1.20;0.70;;;22.40;48.40;;;;;;5051061;28;20202;-57
2022/11/28 11:02:46;;;;;;;2.22;0.75;;;22.40;47.80;;;;;;5050945;28;20214;-56
2022/11/28 11:05:19;;;;;;;1.35;0.75;;;22.40;47.80;;;;;;5050291;28;20695;-52
2022/11/28 11:07:53;;;;;;;1.08;0.77;;;22.40;47.80;;;;;;5051414;28;20202;-59
2022/11/28 11:10:28;;;;;;;1.02;0.85;;;22.30;47.80;;;;;;5051075;28;20249;-58
2022/11/28 11:12:59;;;;;;;1.10;0.70;;;22.30;47.80;;;;;;5051118;28;20206;-56
2022/11/28 11:15:34;;;;;;;2.33;0.80;;;22.30;47.90;;;;;;5051333;28;20195;-57
2022/11/28 11:18:22;;;;;;;1.70;0.85;;;22.20;47.80;;;;;;5054883;28;20234;-53
2022/11/28 11:20:53;;;;;;;1.77;0.95;;;22.20;47.80;;;;;;5055019;28;20191;-56
2022/11/28 11:23:24;;;;;;;1.00;0.60;;;22.20;47.80;;;;;;5054941;28;20215;-52
2022/11/28 11:25:58;;;;;;;0.75;0.47;;;22.10;47.80;;;;;;5055173;28;20652;-55
2022/11/28 11:28:44;;;;;;;1.17;0.70;;;22.10;47.80;;;;;;5054860;28;20195;-58
2022/11/28 11:31:21;;;;;;;1.23;0.73;;;22.10;47.80;;;;;;5054733;28;20222;-58
2022/11/28 11:34:02;;;;;;;1.60;0.88;;;22.10;47.80;;;;;;5054871;28;20207;-57
2022/11/28 11:36:34;;;;;;;1.67;0.80;;;22.10;47.80;;;;;;5054227;28;20192;-54
2022/11/28 11:39:22;;;;;;;0.90;0.70;;;22.10;47.70;;;;;;5054049;28;20199;-51
2022/11/28 11:42:11;;;;;;;2.05;0.98;;;22.00;47.70;;;;;;5051219;28;20196;-55
2022/11/28 11:44:42;;;;;;;1.80;0.70;;;22.00;47.70;;;;;;5048443;28;20246;-55
2022/11/28 11:47:13;;;;;;;1.90;0.70;;;22.00;47.70;;;;;;5054487;28;20195;-57
2022/11/28 11:49:47;;;;;;;1.52;0.75;;;22.00;47.70;;;;;;5054249;28;20204;-57
2022/11/28 11:52:23;;;;;;;1.05;0.70;;;21.90;47.70;;;;;;5054141;28;20202;-53
2022/11/28 11:55:03;;;;;;;1.02;0.75;;;21.90;47.80;;;;;;5053501;28;20281;-56
2022/11/28 11:57:39;;;;;;;1.25;0.70;;;21.90;47.70;;;;;;5054120;28;20203;-53
2022/11/28 12:00:17;;;;;;;1.02;0.68;;;21.80;47.70;;;;;;5054208;28;20207;-54
2022/11/28 12:02:51;;;;;;;0.88;0.73;;;21.80;47.80;;;;;;5054154;28;20286;-52
2022/11/28 12:05:26;;;;;;;0.77;0.70;;;21.80;47.80;;;;;;5053649;28;20567;-56
2022/11/28 12:08:01;;;;;;;0.90;0.60;;;21.80;47.80;;;;;;5053657;28;20191;-54
2022/11/28 12:10:36;;;;;;;1.23;0.55;;;21.80;47.70;;;;;;5053821;28;20227;-56
2022/11/28 12:13:07;;;;;;;1.10;0.60;;;21.70;47.70;;;;;;5053519;28;20203;-53
2022/11/28 12:15:48;;;;;;;1.50;0.70;;;21.80;47.70;;;;;;5053372;28;20191;-54
2022/11/28 12:18:26;;;;;;;1.17;0.70;;;21.70;47.60;;;;;;5053662;28;20200;-55
2022/11/28 12:21:08;;;;;;;0.98;0.70;;;21.70;47.70;;;;;;5053690;28;20199;-55
2022/11/28 12:24:10;;;;;;;1.23;0.73;;;21.70;47.70;;;;;;5053919;28;20698;-57
2022/11/28 12:26:47;;;;;;;1.05;0.70;;;21.60;47.70;;;;;;5011418;28;20349;-60
2022/11/28 12:29:40;;;;;;;1.17;0.60;;;21.60;47.70;;;;;;5053359;28;20206;-59
2022/11/28 12:32:37;;;;;;;1.10;0.60;;;21.60;47.70;;;;;;5053544;28;20230;-58
2022/11/28 12:35:22;;;;;;;0.70;0.50;;;21.60;47.70;;;;;;5053731;28;20224;-56
2022/11/28 12:38:08;;;;;;;0.95;0.60;;;21.50;47.60;;;;;;5053506;28;20203;-53
2022/11/28 12:40:46;;;;;;;1.10;0.80;;;21.50;47.70;;;;;;5061003;28;20195;-57
2022/11/28 12:43:29;;;;;;;0.70;0.70;;;21.50;47.60;;;;;;5073537;28;20686;-58
2022/11/28 12:46:06;;;;;;;1.13;0.60;;;21.50;47.70;;;;;;5073400;28;20816;-55
2022/11/28 12:48:49;;;;;;;1.17;0.50;;;21.50;47.60;;;;;;5073281;28;20195;-54
2022/11/28 12:51:31;;;;;;;0.65;0.60;;;21.50;47.70;;;;;;5073159;28;20734;-57
2022/11/28 12:54:23;;;;;;;0.80;0.50;;;21.40;47.60;;;;;;5072757;28;20234;-56
2022/11/28 12:56:57;;;;;;;0.60;0.50;;;21.40;47.70;;;;;;5071925;28;20222;-56
2022/11/28 12:59:34;;;;;;;1.42;0.70;;;21.40;47.80;;;;;;5063618;28;20211;-55
2022/11/28 13:02:22;;;;;;;1.10;0.73;;;21.30;47.70;;;;;;5053077;28;20206;-58
2022/11/28 13:05:13;;;;;;;1.10;0.73;;;21.30;47.70;;;;;;5052556;28;20223;-57
2022/11/28 13:07:59;;;;;;;1.17;0.60;;;21.30;47.70;;;;;;5052578;28;20571;-57
2022/11/28 13:10:38;;;;;;;0.73;0.50;;;21.30;47.70;;;;;;5052385;28;20219;-58
2022/11/28 13:13:12;;;;;;;0.77;0.60;;;21.30;47.70;;;;;;5052456;28;20207;-55
2022/11/28 13:15:55;;;;;;;0.60;0.52;;;21.30;47.70;;;;;;5052694;28;20630;-55
2022/11/28 13:18:36;;;;;;;0.93;0.52;;;21.20;47.70;;;;;;5052688;28;20562;-57
2022/11/28 13:21:17;;;;;;;0.75;0.43;;;21.20;47.70;;;;;;5052551;28;20214;-56
2022/11/28 13:23:51;;;;;;;1.10;0.68;;;21.20;47.60;;;;;;5052785;28;20306;-54
2022/11/28 13:26:41;;;;;;;0.90;0.70;;;21.20;47.60;;;;;;5053278;28;20199;-56
2022/11/28 13:29:24;;;;;;;0.77;0.43;;;21.20;47.60;;;;;;5052601;28;20200;-52
2022/11/28 13:32:00;;;;;;;1.05;0.50;;;21.10;47.60;;;;;;5052615;28;20230;-57